createdAt,value
2018-05-31T06:10:31.425Z,14.27
2018-05-31T06:13:51.379Z,14.35
2018-05-31T06:16:18.948Z,14.15
2018-05-31T06:18:46.520Z,14.43
2018-05-31T06:21:14.092Z,14.63
2018-05-31T06:23:41.695Z,14.79
2018-05-31T06:26:09.372Z,14.93
2018-05-31T06:28:36.945Z,14.97
2018-05-31T06:33:38.386Z,14.92
2018-05-31T06:36:06.004Z,14.81
2018-05-31T06:38:33.604Z,15.04
2018-05-31T06:41:01.185Z,15.20
2018-05-31T06:43:28.759Z,15.43
2018-05-31T06:45:56.397Z,15.46
2018-05-31T06:48:24.129Z,15.59
2018-05-31T06:50:51.732Z,15.67
2018-05-31T06:53:19.525Z,15.75
2018-05-31T06:55:47.116Z,15.87
2018-05-31T06:58:14.689Z,16.00
2018-05-31T07:00:42.249Z,16.04
2018-05-31T07:03:10.198Z,15.82
2018-05-31T07:05:37.845Z,16.01
2018-05-31T07:08:05.453Z,15.94
2018-05-31T07:10:33.005Z,15.64
2018-05-31T07:13:00.601Z,15.57
2018-05-31T07:15:28.174Z,15.90
2018-05-31T07:17:55.876Z,16.25
2018-05-31T07:20:23.475Z,16.34
2018-05-31T07:22:51.094Z,16.33
2018-05-31T07:25:18.697Z,16.45
2018-05-31T07:27:46.301Z,16.64
2018-05-31T07:30:13.853Z,16.54
2018-05-31T07:32:41.457Z,16.43
2018-05-31T07:35:09.097Z,16.40
2018-05-31T07:37:36.680Z,16.65
2018-05-31T07:40:04.244Z,16.72
2018-05-31T07:42:31.821Z,16.51
2018-05-31T07:44:59.406Z,16.81
2018-05-31T07:47:26.956Z,17.07
2018-05-31T07:49:54.591Z,17.43
2018-05-31T07:52:22.194Z,17.59
2018-05-31T07:54:49.972Z,17.51
2018-05-31T07:57:17.673Z,17.31
2018-05-31T07:59:45.549Z,17.36
2018-05-31T08:02:13.145Z,17.31
2018-05-31T08:04:40.934Z,17.25
2018-05-31T08:07:08.729Z,17.93
2018-05-31T08:09:36.355Z,18.09
2018-05-31T08:12:03.938Z,17.89
2018-05-31T08:14:31.656Z,17.68
2018-05-31T08:16:59.215Z,17.68
2018-05-31T08:19:26.835Z,17.74
2018-05-31T08:21:54.427Z,17.89
2018-05-31T08:24:22.068Z,18.30
2018-05-31T08:26:49.716Z,18.46
2018-05-31T08:29:17.292Z,18.42
2018-05-31T08:31:44.907Z,18.38
2018-05-31T08:34:12.492Z,18.44
2018-05-31T08:36:40.172Z,18.30
2018-05-31T08:39:07.789Z,18.47
2018-05-31T08:41:35.445Z,18.57
2018-05-31T08:44:03.043Z,18.58
2018-05-31T08:46:30.628Z,18.45
2018-05-31T08:48:58.202Z,18.75
2018-05-31T08:51:25.852Z,18.66
2018-05-31T08:53:53.541Z,18.45
2018-05-31T08:56:21.129Z,18.46
2018-05-31T08:58:48.678Z,18.48
2018-05-31T09:01:16.307Z,18.51
2018-05-31T09:03:43.908Z,18.66
2018-05-31T09:06:11.484Z,18.67
2018-05-31T09:08:39.173Z,18.56
2018-05-31T09:11:06.772Z,18.30
2018-05-31T09:13:34.435Z,18.32
2018-05-31T09:16:02.026Z,18.37
2018-05-31T09:18:29.614Z,18.47
2018-05-31T09:20:57.262Z,18.76
2018-05-31T09:23:24.807Z,18.65
2018-05-31T09:25:52.457Z,18.79
2018-05-31T09:28:20.068Z,18.76
2018-05-31T09:30:47.825Z,18.80
2018-05-31T09:33:15.459Z,18.74
2018-05-31T09:35:43.031Z,18.78
2018-05-31T09:38:10.616Z,18.79
2018-05-31T09:40:38.152Z,18.57
2018-05-31T09:43:08.262Z,18.77
2018-05-31T09:45:35.924Z,18.80
2018-05-31T09:48:03.654Z,18.88
2018-05-31T09:50:31.289Z,18.92
2018-05-31T09:52:58.873Z,18.99
2018-05-31T09:55:26.433Z,18.95
2018-05-31T09:57:54.042Z,18.54
2018-05-31T10:00:21.747Z,18.64
2018-05-31T10:02:49.342Z,18.65
2018-05-31T10:05:16.914Z,18.68
2018-05-31T10:07:44.543Z,18.99
2018-05-31T10:10:12.110Z,18.71
2018-05-31T10:12:39.848Z,18.84
2018-05-31T10:15:07.434Z,18.86
2018-05-31T10:17:35.020Z,19.08
2018-05-31T10:20:02.637Z,19.20
2018-05-31T10:22:30.226Z,19.37
2018-05-31T10:24:57.831Z,19.58
2018-05-31T10:27:25.487Z,19.64
2018-05-31T10:29:53.252Z,19.79
2018-05-31T10:32:21.086Z,19.99
2018-05-31T10:34:48.790Z,20.11
2018-05-31T10:37:16.414Z,20.38
2018-05-31T10:39:43.949Z,20.43
2018-05-31T10:42:11.583Z,20.55
2018-05-31T10:44:39.205Z,20.82
2018-05-31T10:47:06.786Z,20.79
2018-05-31T10:49:34.337Z,20.96
2018-05-31T10:52:01.992Z,20.94
2018-05-31T10:54:29.624Z,21.29
2018-05-31T10:56:57.241Z,21.47
2018-05-31T10:59:24.777Z,21.71
2018-05-31T11:01:52.386Z,21.48
2018-05-31T11:04:20.097Z,20.99
2018-05-31T11:06:47.676Z,20.77
2018-05-31T11:09:15.256Z,21.19
2018-05-31T11:11:42.869Z,21.67
2018-05-31T11:14:10.479Z,21.85
2018-05-31T11:16:38.058Z,22.06
2018-05-31T11:19:05.627Z,21.49
2018-05-31T11:21:33.314Z,22.32
2018-05-31T11:24:00.893Z,22.76
2018-05-31T11:26:28.440Z,22.88
2018-05-31T11:28:56.031Z,23.21
2018-05-31T11:31:23.638Z,23.03
2018-05-31T11:33:51.212Z,23.42
2018-05-31T11:36:19.101Z,23.21
2018-05-31T11:38:46.711Z,23.55
2018-05-31T11:41:14.356Z,23.12
2018-05-31T11:43:41.945Z,22.63
2018-05-31T11:46:09.532Z,22.19
2018-05-31T11:48:37.214Z,22.08
2018-05-31T11:51:04.776Z,22.90
2018-05-31T11:53:32.336Z,21.83
2018-05-31T11:56:00.051Z,22.32
2018-05-31T11:58:27.663Z,23.19
2018-05-31T12:00:55.244Z,23.58
2018-05-31T12:03:22.982Z,23.31
2018-05-31T12:05:50.560Z,24.04
2018-05-31T12:08:18.193Z,24.86
2018-05-31T12:10:45.813Z,25.58
2018-05-31T12:13:13.544Z,26.51
2018-05-31T12:15:41.302Z,26.25
2018-05-31T12:18:08.914Z,27.80
2018-05-31T12:20:36.508Z,28.35
2018-05-31T12:23:04.238Z,29.11
2018-05-31T12:25:31.863Z,29.50
2018-05-31T12:27:59.435Z,30.61
2018-05-31T12:30:27.004Z,31.08
2018-05-31T12:32:54.564Z,30.67
2018-05-31T12:35:22.282Z,30.58
2018-05-31T12:37:49.870Z,32.08
2018-05-31T12:40:17.514Z,31.02
2018-05-31T12:42:45.097Z,28.28
2018-05-31T12:45:12.705Z,28.62
2018-05-31T12:47:40.421Z,30.24
2018-05-31T12:50:07.992Z,30.71
2018-05-31T12:52:35.641Z,32.03
2018-05-31T12:55:03.211Z,30.54
2018-05-31T12:57:30.788Z,29.93
2018-05-31T12:59:58.377Z,30.88
2018-05-31T13:02:25.959Z,31.56
2018-05-31T13:04:53.544Z,30.20
2018-05-31T13:07:21.136Z,28.56
2018-05-31T13:09:48.716Z,28.60
2018-05-31T13:12:16.286Z,28.14
2018-05-31T13:14:44.181Z,29.19
2018-05-31T13:17:11.862Z,29.60
2018-05-31T13:19:39.433Z,29.07
2018-05-31T13:22:07.000Z,27.61
2018-05-31T13:24:34.748Z,28.55
2018-05-31T13:27:02.346Z,27.00
2018-05-31T13:29:29.923Z,26.49
2018-05-31T13:31:57.501Z,25.90
2018-05-31T13:34:25.069Z,24.20
2018-05-31T13:36:52.669Z,23.93
2018-05-31T13:39:20.263Z,23.90
2018-05-31T13:41:47.861Z,22.91
2018-05-31T13:44:15.557Z,22.67
2018-05-31T13:46:43.522Z,22.58
2018-05-31T13:49:11.291Z,22.89
2018-05-31T13:51:38.850Z,23.37
2018-05-31T13:54:06.513Z,23.17
2018-05-31T13:56:34.098Z,22.84
2018-05-31T13:59:01.656Z,22.69
2018-05-31T14:01:29.209Z,22.24
2018-05-31T14:03:56.801Z,21.93
2018-05-31T14:06:24.451Z,21.97
2018-05-31T14:08:52.397Z,22.13
2018-05-31T14:11:19.956Z,22.58
2018-05-31T14:13:47.827Z,23.77
2018-05-31T14:16:15.454Z,24.96
2018-05-31T14:18:43.172Z,25.31
2018-05-31T14:21:10.799Z,25.01
2018-05-31T14:23:38.694Z,25.86
2018-05-31T14:26:06.359Z,26.14
2018-05-31T14:28:33.951Z,26.15
2018-05-31T14:31:01.497Z,26.39
2018-05-31T14:33:29.078Z,25.31
2018-05-31T14:35:56.784Z,25.77
2018-05-31T14:38:24.410Z,24.19
2018-05-31T14:40:52.198Z,23.28
2018-05-31T14:43:19.944Z,23.31
2018-05-31T14:45:48.043Z,24.38
2018-05-31T14:48:15.619Z,24.86
2018-05-31T14:50:43.181Z,24.75
2018-05-31T14:53:10.768Z,24.00
2018-05-31T14:55:38.330Z,23.94
2018-05-31T14:58:06.073Z,24.28
2018-05-31T15:00:33.665Z,24.69
2018-05-31T15:03:01.240Z,24.33
2018-05-31T15:05:28.820Z,23.63
2018-05-31T15:07:56.422Z,24.34
2018-05-31T15:10:24.034Z,24.44
2018-05-31T15:12:51.622Z,25.21
2018-05-31T15:15:19.178Z,25.56
2018-05-31T15:17:46.791Z,25.33
2018-05-31T15:20:14.510Z,23.50
2018-05-31T15:22:42.043Z,21.92
2018-05-31T15:25:09.600Z,21.59
2018-05-31T15:27:37.204Z,21.34
2018-05-31T15:30:04.767Z,20.87
2018-05-31T15:32:33.127Z,21.11
2018-05-31T15:35:00.751Z,20.93
2018-05-31T15:37:28.353Z,21.02
2018-05-31T15:39:55.897Z,21.05
2018-05-31T15:42:23.614Z,20.57
2018-05-31T15:44:51.456Z,20.53
2018-05-31T15:47:19.037Z,20.29
2018-05-31T15:49:46.708Z,20.24
2018-05-31T15:52:14.425Z,20.31
2018-05-31T15:54:42.008Z,20.18
2018-05-31T15:57:09.687Z,20.10
2018-05-31T15:59:37.250Z,19.95
2018-05-31T16:02:04.912Z,19.94
2018-05-31T16:04:32.578Z,19.82
2018-05-31T16:07:00.145Z,19.75
2018-05-31T16:09:27.757Z,19.63
2018-05-31T16:11:55.400Z,19.58
2018-05-31T16:14:23.043Z,19.68
2018-05-31T16:16:50.740Z,19.62
2018-05-31T16:19:18.304Z,19.62
2018-05-31T16:21:45.990Z,19.48
2018-05-31T16:24:13.571Z,19.36
2018-05-31T16:26:41.148Z,19.50
2018-05-31T16:29:08.743Z,19.54
2018-05-31T16:31:36.330Z,19.41
2018-05-31T16:34:03.946Z,19.39
2018-05-31T16:36:31.497Z,18.99
2018-05-31T16:38:59.120Z,19.12
2018-05-31T16:41:26.682Z,19.31
2018-05-31T16:44:01.039Z,19.22
2018-05-31T16:46:28.791Z,19.29
2018-05-31T16:48:56.410Z,19.37
2018-05-31T16:51:23.985Z,19.23
2018-05-31T16:53:52.307Z,19.33
2018-05-31T16:56:19.887Z,19.09
2018-05-31T16:58:47.486Z,19.11
2018-05-31T17:01:15.073Z,19.20
2018-05-31T17:03:42.661Z,19.21
2018-05-31T17:06:10.224Z,19.26
2018-05-31T17:08:39.206Z,19.27
2018-05-31T17:11:06.775Z,19.24
2018-05-31T17:13:34.666Z,19.11
2018-05-31T17:16:02.487Z,19.18
2018-05-31T17:18:30.628Z,19.16
2018-05-31T17:20:58.216Z,19.21
2018-05-31T17:23:26.536Z,19.04
2018-05-31T17:25:54.591Z,19.03
2018-05-31T17:28:22.230Z,19.01
2018-05-31T17:30:49.809Z,19.18
2018-05-31T17:33:17.493Z,19.17
2018-05-31T17:35:45.091Z,19.09
2018-05-31T17:38:12.803Z,19.00
2018-05-31T17:40:40.444Z,19.03
2018-05-31T17:43:08.948Z,18.98
2018-05-31T17:45:36.559Z,18.85
2018-05-31T17:48:04.138Z,18.96
2018-05-31T17:50:31.854Z,18.99
2018-05-31T17:52:59.446Z,19.10
2018-05-31T17:55:27.030Z,19.07
2018-05-31T17:57:54.707Z,19.14
2018-05-31T18:00:22.255Z,19.07
2018-05-31T18:02:49.964Z,18.92
2018-05-31T18:05:17.814Z,18.97
2018-05-31T18:07:46.310Z,19.05
2018-05-31T18:10:14.095Z,18.96
2018-05-31T18:12:41.674Z,18.95
2018-05-31T18:15:09.498Z,19.02
2018-05-31T18:17:37.237Z,18.96
2018-05-31T18:20:04.823Z,18.94
2018-05-31T18:22:32.392Z,18.91
2018-05-31T18:24:59.980Z,18.80
2018-05-31T18:27:27.624Z,18.80
2018-05-31T18:29:55.209Z,18.89
2018-05-31T18:32:22.779Z,18.70
2018-05-31T18:34:50.790Z,18.70
2018-05-31T18:37:18.594Z,18.74
2018-05-31T18:39:46.171Z,18.72
2018-05-31T18:42:13.793Z,18.76
2018-05-31T18:44:41.456Z,18.72
2018-05-31T18:47:09.169Z,18.68
2018-05-31T18:49:36.759Z,18.77
2018-05-31T18:52:04.552Z,18.79
2018-05-31T18:54:32.126Z,18.81
2018-05-31T18:56:59.751Z,18.75
2018-05-31T18:59:27.387Z,18.69
2018-05-31T19:01:54.976Z,18.62
2018-05-31T19:04:22.664Z,18.63
2018-05-31T19:06:50.231Z,18.63
2018-05-31T19:09:24.269Z,18.62
2018-05-31T19:11:51.862Z,18.60
2018-05-31T19:14:19.409Z,18.55
2018-05-31T19:16:48.078Z,18.30
2018-05-31T19:19:21.266Z,18.51
2018-05-31T19:21:48.844Z,18.42
2018-05-31T19:24:21.988Z,18.36
2018-05-31T19:26:50.990Z,18.36
2018-05-31T19:29:19.906Z,18.25
2018-05-31T19:31:48.393Z,18.29
2018-05-31T19:34:16.028Z,18.34
2018-05-31T19:36:49.163Z,18.38
2018-05-31T19:39:17.669Z,18.45
2018-05-31T19:41:45.467Z,18.47
2018-05-31T19:47:09.054Z,18.45
2018-05-31T19:49:36.777Z,18.42
2018-05-31T19:52:10.093Z,18.36
2018-05-31T19:54:37.697Z,18.28
2018-05-31T19:57:05.324Z,18.22
2018-05-31T19:59:39.337Z,18.21
2018-05-31T20:02:13.087Z,18.22
2018-05-31T20:04:40.848Z,18.24
2018-05-31T20:07:08.417Z,18.24
2018-05-31T20:09:35.990Z,18.25
2018-05-31T20:12:15.022Z,18.31
2018-05-31T20:14:43.579Z,18.25
2018-05-31T20:17:11.867Z,18.29
2018-05-31T20:19:39.561Z,18.33
2018-05-31T20:22:07.173Z,18.28
2018-05-31T20:24:34.795Z,18.27
2018-05-31T20:27:02.619Z,18.29
2018-05-31T20:29:30.208Z,18.19
2018-05-31T20:31:57.937Z,18.20
2018-05-31T20:34:25.588Z,18.19
2018-05-31T20:36:53.202Z,18.17
2018-05-31T20:39:20.880Z,18.16
2018-05-31T20:41:48.480Z,18.09
2018-05-31T20:44:17.254Z,17.98
2018-05-31T20:46:45.496Z,17.99
2018-05-31T20:49:13.079Z,17.92
2018-05-31T20:51:40.676Z,17.97
2018-05-31T20:54:10.299Z,17.89
2018-05-31T20:56:38.761Z,17.85
2018-05-31T20:59:10.486Z,17.88
2018-05-31T21:01:38.206Z,17.84
2018-05-31T21:04:08.483Z,17.85
2018-05-31T21:06:36.671Z,17.86
2018-05-31T21:09:04.653Z,17.81
2018-05-31T21:11:32.686Z,17.79
2018-05-31T21:14:01.257Z,17.71
2018-05-31T21:16:32.333Z,17.61
2018-05-31T21:19:04.292Z,17.68
2018-05-31T21:21:32.085Z,17.53
2018-05-31T21:24:00.612Z,17.49
2018-05-31T21:26:28.270Z,17.48
2018-05-31T21:28:55.966Z,17.38
2018-05-31T21:31:24.424Z,17.29
2018-05-31T21:33:52.409Z,17.32
2018-05-31T21:36:20.398Z,17.34
2018-05-31T21:38:48.094Z,17.36
2018-05-31T21:41:15.811Z,17.30
2018-05-31T21:43:43.390Z,17.34
2018-05-31T21:46:10.945Z,17.30
2018-05-31T21:48:38.543Z,17.22
2018-05-31T21:51:06.197Z,17.17
2018-05-31T21:53:33.752Z,17.10
2018-05-31T21:56:01.405Z,17.06
2018-05-31T21:58:29.025Z,16.99
2018-05-31T22:00:56.604Z,16.98
2018-05-31T22:03:24.153Z,16.94
2018-05-31T22:05:51.708Z,16.98
2018-05-31T22:08:19.279Z,16.97
2018-05-31T22:10:46.991Z,16.93
2018-05-31T22:13:14.666Z,16.95
2018-05-31T22:15:42.253Z,16.96
2018-05-31T22:18:09.810Z,16.97
2018-05-31T22:20:37.442Z,16.92
2018-05-31T22:23:05.063Z,16.97
2018-05-31T22:25:32.853Z,16.97
2018-05-31T22:28:00.564Z,16.95
2018-05-31T22:30:28.198Z,16.99
2018-05-31T22:32:55.836Z,16.99
2018-05-31T22:35:23.394Z,16.92
2018-05-31T22:37:50.933Z,16.91
2018-05-31T22:40:18.517Z,16.95
2018-05-31T22:42:46.142Z,16.95
2018-05-31T22:45:13.885Z,16.95
2018-05-31T22:47:41.428Z,16.97
2018-05-31T22:50:09.003Z,16.95
2018-05-31T22:52:36.616Z,17.00
2018-05-31T22:55:04.316Z,16.95
2018-05-31T22:57:31.900Z,16.87
2018-05-31T22:59:59.491Z,16.91
2018-05-31T23:02:27.087Z,16.82
2018-05-31T23:04:54.823Z,16.86
2018-05-31T23:07:22.637Z,16.80
2018-05-31T23:09:50.197Z,16.83
2018-05-31T23:12:17.804Z,16.81
2018-05-31T23:14:45.390Z,16.77
2018-05-31T23:17:13.089Z,16.71
2018-05-31T23:19:40.797Z,16.67
2018-05-31T23:22:08.381Z,16.66
2018-05-31T23:24:36.060Z,16.66
2018-05-31T23:27:03.741Z,16.61
2018-05-31T23:29:31.326Z,16.59
2018-05-31T23:31:58.906Z,16.56
2018-05-31T23:34:26.504Z,16.50
2018-05-31T23:36:54.082Z,16.43
2018-05-31T23:39:21.800Z,16.42
2018-05-31T23:41:49.396Z,16.42
2018-05-31T23:44:16.988Z,16.42
2018-05-31T23:46:44.577Z,16.49
2018-05-31T23:49:12.297Z,16.53
2018-05-31T23:51:40.035Z,16.47
2018-05-31T23:54:07.691Z,16.45
2018-05-31T23:56:35.406Z,16.46
2018-05-31T23:59:03.015Z,16.47
